createdAt,value
2022-12-14T00:01:31.439Z,98125.25
2022-12-14T00:03:58.093Z,98117.34
2022-12-14T00:06:30.034Z,98115.88
2022-12-14T00:08:59.259Z,98123.44
2022-12-14T00:11:26.366Z,98128.72
2022-12-14T00:13:58.513Z,98104.00
2022-12-14T00:16:26.243Z,98115.53
2022-12-14T00:18:54.686Z,98118.03
2022-12-14T00:21:21.921Z,98116.34
2022-12-14T00:23:53.024Z,98123.31
2022-12-14T00:26:25.049Z,98118.91
2022-12-14T00:28:53.843Z,98112.78
2022-12-14T00:31:21.950Z,98111.09
2022-12-14T00:33:50.417Z,98113.72
2022-12-14T00:36:17.245Z,98098.47
2022-12-14T00:38:43.847Z,98109.53
2022-12-14T00:41:11.730Z,98111.09
2022-12-14T00:43:38.519Z,98101.97
2022-12-14T00:46:05.441Z,98112.06
2022-12-14T00:48:32.676Z,98113.72
2022-12-14T00:50:59.789Z,98107.00
2022-12-14T00:53:26.514Z,98115.53
2022-12-14T00:55:53.191Z,98095.97
2022-12-14T00:58:23.667Z,98087.31
2022-12-14T01:01:09.856Z,98105.81
2022-12-14T01:03:36.488Z,98099.72
2022-12-14T01:06:04.034Z,98107.63
2022-12-14T01:08:35.544Z,98091.06
2022-12-14T01:11:07.655Z,98104.97
2022-12-14T01:13:36.516Z,98104.97
2022-12-14T01:16:09.660Z,98103.31
2022-12-14T01:18:38.175Z,98102.47
2022-12-14T01:21:15.763Z,98098.97
2022-12-14T01:23:44.094Z,98099.84
2022-12-14T01:26:12.128Z,98089.38
2022-12-14T01:28:38.723Z,98093.81
2022-12-14T01:31:11.081Z,98092.88
2022-12-14T01:33:38.047Z,98093.69
2022-12-14T01:36:16.539Z,98095.50
2022-12-14T01:38:44.295Z,98083.59
2022-12-14T01:41:23.966Z,98084.22
2022-12-14T01:43:53.593Z,98085.91
2022-12-14T01:46:45.085Z,98080.75
2022-12-14T01:49:31.949Z,98072.97
2022-12-14T01:52:07.587Z,98072.00
2022-12-14T01:54:37.819Z,98073.81
2022-12-14T01:57:04.434Z,98072.13
2022-12-14T01:59:36.439Z,98072.13
2022-12-14T02:02:05.496Z,98069.47
2022-12-14T02:04:35.247Z,98059.88
2022-12-14T02:07:03.167Z,98064.34
2022-12-14T02:09:35.688Z,98068.75
2022-12-14T02:12:31.323Z,98063.47
2022-12-14T02:14:58.830Z,98064.44
2022-12-14T02:17:25.767Z,98058.44
2022-12-14T02:19:52.714Z,98060.13
2022-12-14T02:22:56.260Z,98057.50
2022-12-14T02:25:43.993Z,98061.19
2022-12-14T02:28:25.039Z,98068.13
2022-12-14T02:31:06.244Z,98062.16
2022-12-14T02:33:38.571Z,98063.09
2022-12-14T02:36:10.978Z,98058.66
2022-12-14T02:38:59.204Z,98059.63
2022-12-14T02:41:54.263Z,98056.13
2022-12-14T02:44:39.039Z,98061.50
2022-12-14T02:47:05.741Z,98056.34
2022-12-14T02:49:51.150Z,98059.00
2022-12-14T02:52:37.104Z,98063.41
2022-12-14T02:55:11.631Z,98058.13
2022-12-14T02:57:50.934Z,98048.66
2022-12-14T03:00:19.219Z,98046.75
2022-12-14T03:02:48.235Z,98039.69
2022-12-14T03:05:15.252Z,98034.84
2022-12-14T03:07:49.320Z,98031.91
2022-12-14T03:10:38.042Z,98036.44
2022-12-14T03:13:16.716Z,98039.94
2022-12-14T03:15:47.355Z,98042.66
2022-12-14T03:20:38.106Z,98036.66
2022-12-14T03:23:10.225Z,98039.31
2022-12-14T03:25:41.434Z,98040.13
2022-12-14T03:28:15.548Z,98031.94
2022-12-14T03:30:59.901Z,98042.06
2022-12-14T03:33:29.200Z,98031.72
2022-12-14T03:36:13.106Z,98041.19
2022-12-14T03:38:43.543Z,98038.81
2022-12-14T03:41:20.268Z,98042.16
2022-12-14T03:44:19.388Z,98029.09
2022-12-14T03:47:02.530Z,98030.03
2022-12-14T03:50:20.284Z,98027.53
2022-12-14T03:52:51.928Z,98017.78
2022-12-14T03:55:41.640Z,98023.22
2022-12-14T03:58:35.934Z,98023.34
2022-12-14T04:01:24.001Z,98022.47
2022-12-14T04:04:01.295Z,98024.28
2022-12-14T04:06:58.927Z,98017.31
2022-12-14T04:09:32.368Z,98013.00
2022-12-14T04:12:34.440Z,97986.44
2022-12-14T04:15:32.366Z,98020.19
2022-12-14T04:18:23.911Z,98016.72
2022-12-14T04:20:56.354Z,98015.88
2022-12-14T04:23:58.339Z,98004.47
2022-12-14T04:26:29.797Z,97992.00
2022-12-14T04:29:19.416Z,98002.81
2022-12-14T04:31:51.541Z,97997.78
2022-12-14T04:34:20.083Z,98001.22
2022-12-14T04:36:51.914Z,98002.09
2022-12-14T04:39:26.975Z,97980.13
2022-12-14T04:41:58.752Z,97996.94
2022-12-14T04:44:31.888Z,97988.44
2022-12-14T04:46:59.387Z,97990.81
2022-12-14T04:49:59.356Z,97993.56
2022-12-14T04:52:36.151Z,97998.84
2022-12-14T04:55:15.696Z,97990.94
2022-12-14T04:57:45.862Z,97989.38
2022-12-14T05:00:13.014Z,97968.03
2022-12-14T05:02:45.604Z,97983.25
2022-12-14T05:05:25.473Z,97961.06
2022-12-14T05:07:58.618Z,97971.06
2022-12-14T05:10:30.876Z,97976.41
2022-12-14T05:13:18.885Z,97962.28
2022-12-14T05:15:50.214Z,97958.09
2022-12-14T05:18:17.448Z,97953.56
2022-12-14T05:20:45.707Z,97959.78
2022-12-14T05:23:12.498Z,97966.81
2022-12-14T05:25:39.051Z,97931.09
2022-12-14T05:28:05.660Z,97945.16
2022-12-14T05:30:33.079Z,97944.09
2022-12-14T05:32:59.823Z,97945.88
2022-12-14T05:35:26.385Z,97945.88
2022-12-14T05:37:53.100Z,97947.69
2022-12-14T05:40:19.735Z,97948.75
2022-12-14T05:42:49.888Z,97946.13
2022-12-14T05:45:20.507Z,97949.56
2022-12-14T05:47:48.393Z,97943.47
2022-12-14T05:50:15.270Z,97940.00
2022-12-14T05:52:41.777Z,97895.59
2022-12-14T05:55:09.026Z,97954.09
2022-12-14T05:57:35.620Z,97948.84
2022-12-14T06:00:03.735Z,97939.63
2022-12-14T06:02:31.707Z,97943.69
2022-12-14T06:04:58.348Z,97947.19
2022-12-14T06:07:28.066Z,97938.75
2022-12-14T06:09:55.076Z,97943.53
2022-12-14T06:12:22.009Z,97945.97
2022-12-14T06:14:48.610Z,97954.97
2022-12-14T06:17:15.156Z,97922.72
2022-12-14T06:19:42.460Z,97927.13
2022-12-14T06:22:16.538Z,97925.44
2022-12-14T06:24:43.043Z,97945.38
2022-12-14T06:27:09.615Z,97934.56
2022-12-14T06:29:36.234Z,97930.16
2022-12-14T06:32:02.806Z,97886.13
2022-12-14T06:34:32.832Z,97929.81
2022-12-14T06:37:02.004Z,97905.97
2022-12-14T06:39:28.775Z,97928.75
2022-12-14T06:41:55.638Z,97929.56
2022-12-14T06:44:22.263Z,97909.91
2022-12-14T06:46:48.966Z,97934.63
2022-12-14T06:49:15.982Z,97933.78
2022-12-14T06:51:42.995Z,97927.69
2022-12-14T06:54:11.471Z,97917.94
2022-12-14T06:56:39.133Z,97924.88
2022-12-14T06:59:05.792Z,97898.22
2022-12-14T07:01:34.955Z,97948.84
2022-12-14T07:04:01.791Z,97949.81
2022-12-14T07:06:32.311Z,97938.44
2022-12-14T07:09:00.670Z,97934.97
2022-12-14T07:11:29.253Z,97929.09
2022-12-14T07:13:57.150Z,97910.63
2022-12-14T07:16:26.255Z,97928.47
2022-12-14T07:18:56.217Z,97923.81
2022-12-14T07:21:23.678Z,97914.44
2022-12-14T07:23:52.357Z,97919.50
2022-12-14T07:26:25.320Z,97867.22
2022-12-14T07:28:52.997Z,97920.44
2022-12-14T07:31:23.086Z,97909.53
2022-12-14T07:33:53.150Z,97926.66
2022-12-14T07:36:21.222Z,97913.41
2022-12-14T07:38:49.664Z,97910.78
2022-12-14T07:41:22.055Z,97916.75
2022-12-14T07:43:50.162Z,97906.47
2022-12-14T07:46:20.377Z,97908.75
2022-12-14T07:48:49.301Z,97907.78
2022-12-14T07:51:17.922Z,97906.81
2022-12-14T07:53:44.686Z,97905.06
2022-12-14T07:56:14.004Z,97898.72
2022-12-14T07:58:41.480Z,97910.94
2022-12-14T08:01:20.057Z,97900.16
2022-12-14T08:04:10.944Z,97892.13
2022-12-14T08:06:38.955Z,97895.63
2022-12-14T08:09:06.574Z,97902.56
2022-12-14T08:11:33.219Z,97899.69
2022-12-14T08:14:02.711Z,97901.38
2022-12-14T08:16:29.450Z,97892.41
2022-12-14T08:18:57.914Z,97894.91
2022-12-14T08:21:26.392Z,97893.00
2022-12-14T08:23:55.395Z,97888.47
2022-12-14T08:26:24.008Z,97877.31
2022-12-14T08:28:55.231Z,97876.84
2022-12-14T08:31:25.374Z,97875.78
2022-12-14T08:33:52.476Z,97863.91
2022-12-14T08:36:28.070Z,97865.94
2022-12-14T08:38:56.557Z,97860.66
2022-12-14T08:41:24.239Z,97873.50
2022-12-14T08:43:56.339Z,97875.19
2022-12-14T08:46:24.187Z,97868.00
2022-12-14T08:48:52.610Z,97876.63
2022-12-14T08:51:20.360Z,97867.75
2022-12-14T08:53:50.440Z,97843.81
2022-12-14T08:56:20.874Z,97872.81
2022-12-14T08:58:47.642Z,97857.47
2022-12-14T09:01:17.167Z,97845.25
2022-12-14T09:03:45.567Z,97850.66
2022-12-14T09:06:15.730Z,97853.28
2022-12-14T09:08:42.528Z,97848.97
2022-12-14T09:11:12.840Z,97851.28
2022-12-14T09:13:39.528Z,97853.78
2022-12-14T09:16:11.037Z,97845.88
2022-12-14T09:18:37.708Z,97843.97
2022-12-14T09:21:04.981Z,97836.06
2022-12-14T09:23:34.044Z,97838.72
2022-12-14T09:26:06.186Z,97829.00
2022-12-14T09:28:35.399Z,97822.75
2022-12-14T09:31:07.958Z,97824.44
2022-12-14T09:33:34.976Z,97825.28
2022-12-14T09:36:09.374Z,97823.72
2022-12-14T09:38:39.186Z,97835.72
2022-12-14T09:41:08.256Z,97811.75
2022-12-14T09:43:43.721Z,97828.63
2022-12-14T09:46:21.317Z,97822.41
2022-12-14T09:48:49.134Z,97825.06
2022-12-14T09:51:18.734Z,97825.88
2022-12-14T09:53:47.763Z,97810.91
2022-12-14T09:56:18.189Z,97817.84
2022-12-14T09:58:54.329Z,97808.97
2022-12-14T10:01:33.157Z,97801.94
2022-12-14T10:04:18.191Z,97787.41
2022-12-14T10:06:57.648Z,97800.13
2022-12-14T10:09:33.570Z,97793.06
2022-12-14T10:12:15.331Z,97794.72
2022-12-14T10:15:07.749Z,97775.19
2022-12-14T10:18:05.378Z,97789.44
2022-12-14T10:20:54.318Z,97802.63
2022-12-14T10:23:23.580Z,97791.13
2022-12-14T10:25:54.319Z,97794.63
2022-12-14T10:28:37.683Z,97791.84
2022-12-14T10:31:09.374Z,97786.72
2022-12-14T10:33:43.936Z,97780.34
2022-12-14T10:36:28.691Z,97783.69
2022-12-14T10:39:06.932Z,97774.13
2022-12-14T10:41:49.429Z,97781.03
2022-12-14T10:44:27.912Z,97773.03
2022-12-14T10:47:07.407Z,97760.69
2022-12-14T10:49:42.440Z,97765.94
2022-12-14T10:52:16.808Z,97767.63
2022-12-14T10:54:49.583Z,97756.13
2022-12-14T10:57:24.759Z,97755.28
2022-12-14T11:00:07.809Z,97758.75
2022-12-14T11:02:41.053Z,97760.44
2022-12-14T11:05:36.665Z,97754.31
2022-12-14T11:08:07.870Z,97748.09
2022-12-14T11:10:36.649Z,97748.91
2022-12-14T11:13:14.087Z,97731.44
2022-12-14T11:15:49.051Z,97726.16
2022-12-14T11:18:15.644Z,97718.13
2022-12-14T11:21:00.028Z,97725.19
2022-12-14T11:23:38.659Z,97714.44
2022-12-14T11:26:12.474Z,97722.53
2022-12-14T11:28:54.331Z,97717.28
2022-12-14T11:31:21.016Z,97727.81
2022-12-14T11:33:50.829Z,97717.28
2022-12-14T11:36:23.540Z,97711.16
2022-12-14T11:39:07.099Z,97695.34
2022-12-14T11:41:36.953Z,97689.13
2022-12-14T11:44:26.038Z,97692.59
2022-12-14T11:47:04.811Z,97682.53
2022-12-14T11:49:40.491Z,97692.47
2022-12-14T11:52:20.935Z,97694.13
2022-12-14T11:55:06.793Z,97683.59
2022-12-14T11:57:48.538Z,97677.34
2022-12-14T12:00:26.267Z,97683.47
2022-12-14T12:03:03.168Z,97672.94
2022-12-14T12:05:33.571Z,97669.44
2022-12-14T12:08:02.714Z,97662.50
2022-12-14T12:10:50.195Z,97642.88
2022-12-14T12:13:24.120Z,97663.34
2022-12-14T12:15:54.894Z,97653.75
2022-12-14T12:18:33.866Z,97661.78
2022-12-14T12:21:11.141Z,97640.34
2022-12-14T12:23:57.952Z,97636.31
2022-12-14T12:26:35.645Z,97647.91
2022-12-14T12:29:12.539Z,97641.06
2022-12-14T12:31:48.796Z,97629.13
2022-12-14T12:34:21.895Z,97632.34
2022-12-14T12:37:17.429Z,97624.53
2022-12-14T12:39:38.751Z,97611.72
2022-12-14T12:42:26.300Z,97612.31
2022-12-14T12:45:03.333Z,97615.06
2022-12-14T12:47:46.739Z,97608.97
2022-12-14T12:50:21.782Z,97601.06
2022-12-14T12:53:09.796Z,97585.16
2022-12-14T12:55:52.124Z,97578.34
2022-12-14T12:58:29.480Z,97572.13
2022-12-14T13:01:00.980Z,97583.81
2022-12-14T13:03:39.588Z,97579.53
2022-12-14T13:06:40.804Z,97577.84
2022-12-14T13:09:21.291Z,97573.53
2022-12-14T13:11:49.086Z,97562.13
2022-12-14T13:14:21.224Z,97560.34
2022-12-14T13:16:49.684Z,97544.69
2022-12-14T13:19:49.233Z,97539.41
2022-12-14T13:22:27.455Z,97530.06
2022-12-14T13:24:59.486Z,97522.72
2022-12-14T13:27:49.474Z,97528.97
2022-12-14T13:30:23.012Z,97523.81
2022-12-14T13:33:15.182Z,97520.38
2022-12-14T13:35:50.192Z,97510.78
2022-12-14T13:38:33.349Z,97498.56
2022-12-14T13:41:09.531Z,97503.00
2022-12-14T13:44:07.631Z,97488.16
2022-12-14T13:46:34.479Z,97476.75
2022-12-14T13:49:06.244Z,97481.06
2022-12-14T13:51:37.923Z,97474.97
2022-12-14T13:54:08.208Z,97471.38
2022-12-14T13:56:38.348Z,97469.56
2022-12-14T13:59:40.366Z,97465.13
2022-12-14T14:02:29.794Z,97454.56
2022-12-14T14:05:14.559Z,97454.56
2022-12-14T14:07:56.116Z,97445.84
2022-12-14T14:10:37.169Z,97444.03
2022-12-14T14:13:28.523Z,97436.13
2022-12-14T14:16:26.740Z,97435.31
2022-12-14T14:19:09.060Z,97430.03
2022-12-14T14:22:06.319Z,97416.63
2022-12-14T14:24:29.903Z,97430.03
2022-12-14T14:27:11.454Z,97429.22
2022-12-14T14:29:46.453Z,97431.00
2022-12-14T14:32:40.292Z,97423.94
2022-12-14T14:35:21.025Z,97416.03
2022-12-14T14:37:59.221Z,97404.63
2022-12-14T14:40:58.262Z,97408.94
2022-12-14T14:43:28.312Z,97397.59
2022-12-14T14:45:58.013Z,97398.41
2022-12-14T14:48:30.673Z,97397.69
2022-12-14T14:51:16.212Z,97390.63
2022-12-14T14:53:43.391Z,97347.53
2022-12-14T14:56:36.246Z,97351.09
2022-12-14T14:59:38.811Z,97333.63
2022-12-14T15:02:29.997Z,97330.13
2022-12-14T15:04:57.486Z,97345.84
2022-12-14T15:07:30.770Z,97350.25
2022-12-14T15:10:06.246Z,97341.53
2022-12-14T15:12:32.832Z,97349.28
2022-12-14T15:15:15.351Z,97333.03
2022-12-14T15:17:42.587Z,97317.81
2022-12-14T15:20:28.931Z,97311.69
2022-12-14T15:22:56.347Z,97316.13
2022-12-14T15:25:29.521Z,97313.50
2022-12-14T15:28:01.807Z,97294.00
2022-12-14T15:30:29.307Z,97296.88
2022-12-14T15:33:01.311Z,97293.38
2022-12-14T15:35:35.944Z,97268.38
2022-12-14T15:38:32.905Z,97277.56
2022-12-14T15:41:03.306Z,97286.44
2022-12-14T15:43:30.804Z,97276.88
2022-12-14T15:46:04.127Z,97279.38
2022-12-14T15:48:35.555Z,97277.56
2022-12-14T15:51:05.255Z,97266.69
2022-12-14T15:53:50.369Z,97250.19
2022-12-14T15:56:25.628Z,97253.84
2022-12-14T15:58:53.543Z,97248.56
2022-12-14T16:01:25.642Z,97237.06
2022-12-14T16:03:56.543Z,97234.44
2022-12-14T16:06:25.851Z,97239.72
2022-12-14T16:08:59.966Z,97238.88
2022-12-14T16:11:39.996Z,97230.97
2022-12-14T16:14:24.876Z,97227.34
2022-12-14T16:16:51.933Z,97222.09
2022-12-14T16:19:27.694Z,97218.63
2022-12-14T16:22:10.647Z,97208.91
2022-12-14T16:24:38.170Z,97201.13
2022-12-14T16:27:19.314Z,97195.88
2022-12-14T16:30:17.718Z,97208.09
2022-12-14T16:32:52.095Z,97195.72
2022-12-14T16:35:24.847Z,97188.94
2022-12-14T16:37:55.685Z,97194.75
2022-12-14T16:40:36.160Z,97200.88
2022-12-14T16:43:05.160Z,97186.84
2022-12-14T16:45:54.743Z,97186.84
2022-12-14T16:48:23.123Z,97187.72
2022-12-14T16:51:01.798Z,97183.25
2022-12-14T16:53:34.989Z,97190.34
2022-12-14T16:56:04.304Z,97192.13
2022-12-14T16:58:31.352Z,97193.81
2022-12-14T17:01:01.257Z,97198.25
2022-12-14T17:03:32.942Z,97192.13
2022-12-14T17:06:02.898Z,97198.25
2022-12-14T17:08:29.616Z,97196.44
2022-12-14T17:10:57.663Z,97197.28
2022-12-14T17:13:24.219Z,97202.66
2022-12-14T17:16:00.465Z,97204.19
2022-12-14T17:18:33.968Z,97198.09
2022-12-14T17:21:01.766Z,97197.41
2022-12-14T17:23:29.216Z,97200.75
2022-12-14T17:25:56.083Z,97207.69
2022-12-14T17:28:35.340Z,97199.78
2022-12-14T17:31:02.891Z,97202.56
2022-12-14T17:33:31.624Z,97193.81
2022-12-14T17:35:58.523Z,97202.41
2022-12-14T17:38:25.451Z,97198.94
2022-12-14T17:40:53.762Z,97205.88
2022-12-14T17:43:24.507Z,97182.00
2022-12-14T17:45:51.366Z,97196.19
2022-12-14T17:48:20.507Z,97190.06
2022-12-14T17:50:52.214Z,97180.47
2022-12-14T17:53:26.005Z,97175.22
2022-12-14T17:55:52.763Z,97181.47
2022-12-14T17:58:22.113Z,97175.34
2022-12-14T18:01:03.263Z,97173.13
2022-12-14T18:03:36.521Z,97172.84
2022-12-14T18:06:04.591Z,97174.66
2022-12-14T18:08:31.333Z,97164.94
2022-12-14T18:11:05.454Z,97165.91
2022-12-14T18:13:34.985Z,97150.63
2022-12-14T18:16:01.577Z,97165.22
2022-12-14T18:18:29.589Z,97158.31
2022-12-14T18:21:00.415Z,97156.59
2022-12-14T18:23:28.899Z,97156.34
2022-12-14T18:25:58.430Z,97112.44
2022-12-14T18:28:27.781Z,97112.59
2022-12-14T18:30:56.782Z,97140.69
2022-12-14T18:33:26.340Z,97132.78
2022-12-14T18:35:54.599Z,97130.13
2022-12-14T18:38:21.751Z,97129.31
2022-12-14T18:40:50.320Z,97122.34
2022-12-14T18:43:25.577Z,97118.78
2022-12-14T18:45:53.908Z,97110.13
2022-12-14T18:48:21.021Z,97103.47
2022-12-14T18:50:49.924Z,97113.50
2022-12-14T18:53:19.050Z,97110.88
2022-12-14T18:55:46.549Z,97089.88
2022-12-14T18:58:22.294Z,97095.06
2022-12-14T19:00:54.179Z,97088.09
2022-12-14T19:03:22.061Z,97081.16
2022-12-14T19:05:49.016Z,97079.25
2022-12-14T19:08:15.945Z,97081.88
2022-12-14T19:10:45.990Z,97075.75
2022-12-14T19:13:25.466Z,97060.81
2022-12-14T19:15:54.203Z,97060.66
2022-12-14T19:18:21.015Z,97066.88
2022-12-14T19:20:49.561Z,97064.25
2022-12-14T19:23:17.969Z,97058.84
2022-12-14T19:25:47.651Z,97068.56
2022-12-14T19:28:31.424Z,97070.22
2022-12-14T19:30:59.992Z,97052.59
2022-12-14T19:33:27.673Z,97044.84
2022-12-14T19:35:54.752Z,97029.25
2022-12-14T19:38:23.892Z,97013.75
2022-12-14T19:41:21.331Z,97042.88
2022-12-14T19:43:48.244Z,97042.34
2022-12-14T19:46:16.053Z,97047.34
2022-12-14T19:48:43.064Z,97040.53
2022-12-14T19:51:12.499Z,96991.28
2022-12-14T19:53:43.871Z,97024.00
2022-12-14T19:56:13.509Z,97007.50
2022-12-14T19:58:40.186Z,97028.59
2022-12-14T20:01:12.795Z,97010.69
2022-12-14T20:03:40.262Z,97025.25
2022-12-14T20:06:08.318Z,97021.50
2022-12-14T20:08:38.774Z,97031.63
2022-12-14T20:11:11.128Z,97035.22
2022-12-14T20:13:38.226Z,97018.72
2022-12-14T20:16:05.121Z,97011.81
2022-12-14T20:18:32.122Z,97029.56
2022-12-14T20:21:07.678Z,97036.59
2022-12-14T20:23:36.483Z,97030.53
2022-12-14T20:26:16.514Z,97031.34
2022-12-14T20:28:43.272Z,97022.63
2022-12-14T20:31:10.821Z,97021.78
2022-12-14T20:33:38.402Z,97030.66
2022-12-14T20:36:05.713Z,97027.31
2022-12-14T20:38:32.510Z,97002.50
2022-12-14T20:41:06.789Z,97015.97
2022-12-14T20:43:38.101Z,97014.31
2022-12-14T20:46:05.822Z,97018.16
2022-12-14T20:48:33.048Z,97024.00
2022-12-14T20:51:01.845Z,97000.28
2022-12-14T20:53:30.602Z,97007.78
2022-12-14T20:56:02.851Z,97025.25
2022-12-14T20:58:29.478Z,97020.94
2022-12-14T21:03:19.088Z,97016.38
2022-12-14T21:05:45.791Z,97023.56
2022-12-14T21:08:15.536Z,97030.66
2022-12-14T21:10:42.931Z,97034.09
2022-12-14T21:13:09.487Z,97038.41
2022-12-14T21:15:36.291Z,97033.97
2022-12-14T21:18:03.056Z,97038.41
2022-12-14T21:20:29.630Z,97034.66
2022-12-14T21:22:56.247Z,97028.44
2022-12-14T21:25:22.918Z,97038.00
2022-12-14T21:27:49.503Z,97038.00
2022-12-14T21:30:17.042Z,97041.19
2022-12-14T21:32:43.894Z,97040.25
2022-12-14T21:35:10.598Z,97024.28
2022-12-14T21:37:38.314Z,97041.75
2022-12-14T21:40:05.644Z,97037.59
2022-12-14T21:42:32.174Z,97029.25
2022-12-14T21:44:58.887Z,97040.78
2022-12-14T21:47:28.501Z,97050.78
2022-12-14T21:49:55.976Z,97052.41
2022-12-14T21:52:25.678Z,97048.97
2022-12-14T21:54:52.383Z,97052.41
2022-12-14T21:57:40.450Z,97050.34
2022-12-14T22:00:10.614Z,97045.22
2022-12-14T22:02:41.443Z,97051.91
2022-12-14T22:05:10.314Z,97034.97
2022-12-14T22:07:37.075Z,97050.78
2022-12-14T22:10:03.991Z,97032.88
2022-12-14T22:12:30.696Z,97040.25
2022-12-14T22:14:57.414Z,97041.66
2022-12-14T22:17:26.502Z,97022.78
2022-12-14T22:19:55.067Z,97037.09
2022-12-14T22:22:21.699Z,97034.16
2022-12-14T22:24:49.774Z,97027.06
2022-12-14T22:27:16.664Z,97033.19
2022-12-14T22:29:43.197Z,97023.19
2022-12-14T22:32:12.180Z,97009.31
2022-12-14T22:34:39.072Z,97028.19
2022-12-14T22:37:08.604Z,97024.56
2022-12-14T22:41:51.919Z,97008.75
2022-12-14T22:44:18.510Z,97016.66
2022-12-14T22:46:45.026Z,97021.94
2022-12-14T22:49:16.758Z,96976.56
2022-12-14T22:51:43.399Z,97026.50
2022-12-14T22:54:26.031Z,97013.06
2022-12-14T22:57:20.765Z,97029.16
2022-12-14T22:59:59.022Z,97025.53
2022-12-14T23:02:26.485Z,97009.88
2022-12-14T23:04:53.328Z,97023.88
2022-12-14T23:07:20.084Z,96982.81
2022-12-14T23:10:05.028Z,97001.28
2022-12-14T23:12:50.706Z,97014.19
2022-12-14T23:15:36.068Z,97028.47
2022-12-14T23:18:28.526Z,97022.78
2022-12-14T23:21:13.668Z,97017.63
2022-12-14T23:24:00.846Z,97039.00
2022-12-14T23:26:46.282Z,97041.66
2022-12-14T23:29:31.887Z,97019.06
2022-12-14T23:32:17.222Z,97039.16
2022-12-14T23:35:02.507Z,97043.59
2022-12-14T23:37:47.724Z,97052.19
2022-12-14T23:40:33.182Z,97043.03
2022-12-14T23:43:27.277Z,97038.31
2022-12-14T23:46:13.038Z,97043.59
2022-12-14T23:48:58.406Z,97049.72
2022-12-14T23:51:43.719Z,97042.75
2022-12-14T23:54:29.183Z,97046.22
2022-12-14T23:57:17.314Z,97049.72
